Austin, TX

4:21 AM CST on February 01, 2015 (GMT -0600)
Longhorn Village in Steiner Ranch | Change Station
CLOSE
Current Station
Personal Weather Station
Location: Austin, TX
Elevation: 791 ft
Nearby Weather Stations

Elev 791 ft 30.35 °N, 97.91 °W | Updated 11 minutes ago

Overcast
Overcast
60.8 °F
Feels Like 60.8 °F
N
0.0
Wind Variable Wind from East

Today
High -- | Low -- °F
--% Chance of Precip.
Yesterday
High -- | Low -- °F
Precip. -- in
7:22 AM 6:08 PM
Waxing Gibbous, 94% visible
Pressure 29.89 in
Visibility 7.0 miles
Clouds Overcast 800 ft
Dew Point 59 °F
Humidity 94%
Rainfall 0.00 in
Snow Depth Not available.
UV 0 out of 12
Pollen 6.40 out of 12
Air Quality Not available.
Flu Activity Not available.
METAR KATT 010951Z AUTO 15003KT 7SM OVC008 16/16 A2990 RMK AO2 SLP121 T01610156

More Conditions Fewer Conditions

Pressure 29.89 in
Visibility 7.0 miles
Clouds Overcast 800 ft
Dew Point 59 °F
Humidity 94%
Rainfall 0.00 in
Snow Depth Not available.
UV 0 out of 12
Pollen 6.40 out of 12
Air Quality Not available.
Flu Activity Not available.
METAR KATT 010951Z AUTO 15003KT 7SM OVC008 16/16 A2990 RMK AO2 SLP121 T01610156

More Conditions Fewer Conditions

Nowcast | as of 2:54 am CST on February 1, 2015

Through 5 am CST...areas of drizzle and light rain will continue to move northeast across The Hill Country and south central Texas. Rainfall amounts will be a trace to a few hundredths of an inch. Areas of fog will combine with the patchy drizzle to reduce visibilities to 3 to 5 miles...with a few locations falling to 1 mile or less. Motorists should use extra caution in areas where roadways are wet and visibilities are low.

×

10-Day Weather Forecast

Almanac

Astronomy

Feb. 01, 2015 Rise Set
Actual Time
Civil Twilight
Nautical Twilight
Astronomical Twilight
Moon
Length of Visible Light
Length of Day
Tomorrow will be .
, % of the Moon is Illuminated

Today's Extremes

State Highs State Lows

Community

WunderPhotos

Upload Photos

1,792,325 photos uploaded!

WunderBlogs® & News

Nearby

Air Quality

  Air Quality AQ Index Pollutant
Not available.

Snow Depth

Station Depth Elevation

Earthquake Activity

City Distance Mag. Time & Date
Minimum magnitude displayed is 2.5.

Coastal Water Temperatures

Place Temperature

Nearby Weather Stations